sensor_id;sensor_type;location;lat;lon;timestamp;P1;durP1;ratioP1;P2;durP2;ratioP2
60239;SDS011;46102;39.012;-7.064;2022-07-10T00:00:58;77.45;;;67.03;;
60239;SDS011;46102;39.012;-7.064;2022-07-10T00:02:59;75.30;;;66.45;;
60239;SDS011;46102;39.012;-7.064;2022-07-10T00:04:59;78.32;;;66.32;;
60239;SDS011;46102;39.012;-7.064;2022-07-10T00:07:00;75.82;;;64.93;;
60239;SDS011;46102;39.012;-7.064;2022-07-10T00:09:02;73.38;;;65.43;;
60239;SDS011;46102;39.012;-7.064;2022-07-10T00:11:03;78.72;;;67.10;;
60239;SDS011;46102;39.012;-7.064;2022-07-10T00:13:03;71.80;;;63.70;;
60239;SDS011;46102;39.012;-7.064;2022-07-10T00:15:04;76.78;;;65.28;;
60239;SDS011;46102;39.012;-7.064;2022-07-10T00:17:05;74.55;;;65.28;;
60239;SDS011;46102;39.012;-7.064;2022-07-10T00:19:06;74.35;;;66.20;;
60239;SDS011;46102;39.012;-7.064;2022-07-10T00:21:07;74.38;;;63.47;;
60239;SDS011;46102;39.012;-7.064;2022-07-10T00:23:07;77.90;;;64.13;;
60239;SDS011;46102;39.012;-7.064;2022-07-10T00:25:12;75.00;;;64.15;;
60239;SDS011;46102;39.012;-7.064;2022-07-10T00:27:13;71.10;;;63.22;;
60239;SDS011;46102;39.012;-7.064;2022-07-10T00:29:14;78.07;;;66.35;;
60239;SDS011;46102;39.012;-7.064;2022-07-10T00:31:16;72.63;;;64.65;;
60239;SDS011;46102;39.012;-7.064;2022-07-10T00:33:17;75.75;;;65.88;;
60239;SDS011;46102;39.012;-7.064;2022-07-10T00:35:17;75.68;;;65.15;;
60239;SDS011;46102;39.012;-7.064;2022-07-10T00:37:18;76.85;;;67.10;;
60239;SDS011;46102;39.012;-7.064;2022-07-10T00:39:21;77.07;;;66.03;;
60239;SDS011;46102;39.012;-7.064;2022-07-10T00:41:22;72.88;;;65.13;;
60239;SDS011;46102;39.012;-7.064;2022-07-10T00:43:25;80.83;;;66.80;;
60239;SDS011;46102;39.012;-7.064;2022-07-10T00:45:26;81.55;;;68.65;;
60239;SDS011;46102;39.012;-7.064;2022-07-10T00:47:27;79.35;;;68.03;;
60239;SDS011;46102;39.012;-7.064;2022-07-10T00:49:27;76.60;;;66.05;;
60239;SDS011;46102;39.012;-7.064;2022-07-10T00:51:29;78.93;;;66.80;;
60239;SDS011;46102;39.012;-7.064;2022-07-10T00:53:31;82.18;;;69.35;;
60239;SDS011;46102;39.012;-7.064;2022-07-10T00:55:32;76.07;;;67.80;;
60239;SDS011;46102;39.012;-7.064;2022-07-10T00:57:35;78.63;;;68.72;;
60239;SDS011;46102;39.012;-7.064;2022-07-10T00:59:39;81.72;;;68.82;;
60239;SDS011;46102;39.012;-7.064;2022-07-10T01:01:40;83.43;;;72.57;;
60239;SDS011;46102;39.012;-7.064;2022-07-10T01:03:41;86.60;;;73.20;;
60239;SDS011;46102;39.012;-7.064;2022-07-10T01:05:42;86.35;;;70.55;;
60239;SDS011;46102;39.012;-7.064;2022-07-10T01:07:43;78.78;;;69.53;;
60239;SDS011;46102;39.012;-7.064;2022-07-10T01:09:43;79.53;;;69.43;;
60239;SDS011;46102;39.012;-7.064;2022-07-10T01:11:44;81.38;;;72.57;;
60239;SDS011;46102;39.012;-7.064;2022-07-10T01:13:45;78.88;;;68.45;;
60239;SDS011;46102;39.012;-7.064;2022-07-10T01:15:46;83.28;;;72.07;;
60239;SDS011;46102;39.012;-7.064;2022-07-10T01:17:48;82.97;;;70.68;;
60239;SDS011;46102;39.012;-7.064;2022-07-10T01:19:49;80.22;;;69.88;;
60239;SDS011;46102;39.012;-7.064;2022-07-10T01:21:50;86.28;;;69.65;;
60239;SDS011;46102;39.012;-7.064;2022-07-10T01:23:51;84.07;;;70.63;;
60239;SDS011;46102;39.012;-7.064;2022-07-10T01:25:52;79.75;;;70.50;;
60239;SDS011;46102;39.012;-7.064;2022-07-10T01:27:53;86.38;;;69.85;;
60239;SDS011;46102;39.012;-7.064;2022-07-10T01:29:54;80.63;;;66.97;;
60239;SDS011;46102;39.012;-7.064;2022-07-10T01:31:55;78.90;;;67.20;;
60239;SDS011;46102;39.012;-7.064;2022-07-10T01:33:56;75.25;;;65.63;;
60239;SDS011;46102;39.012;-7.064;2022-07-10T01:36:00;80.85;;;67.72;;
60239;SDS011;46102;39.012;-7.064;2022-07-10T01:38:00;76.53;;;68.20;;
60239;SDS011;46102;39.012;-7.064;2022-07-10T01:40:01;82.68;;;69.32;;
60239;SDS011;46102;39.012;-7.064;2022-07-10T01:42:03;81.90;;;68.45;;
60239;SDS011;46102;39.012;-7.064;2022-07-10T01:44:04;81.38;;;67.07;;
60239;SDS011;46102;39.012;-7.064;2022-07-10T01:46:04;86.55;;;69.25;;
60239;SDS011;46102;39.012;-7.064;2022-07-10T01:48:05;85.05;;;67.85;;
60239;SDS011;46102;39.012;-7.064;2022-07-10T01:50:06;86.72;;;69.00;;
60239;SDS011;46102;39.012;-7.064;2022-07-10T01:52:07;80.03;;;68.65;;
60239;SDS011;46102;39.012;-7.064;2022-07-10T01:54:08;85.82;;;68.95;;
60239;SDS011;46102;39.012;-7.064;2022-07-10T01:56:09;80.47;;;67.35;;
60239;SDS011;46102;39.012;-7.064;2022-07-10T01:58:11;83.40;;;68.40;;
60239;SDS011;46102;39.012;-7.064;2022-07-10T02:00:12;75.45;;;65.07;;
60239;SDS011;46102;39.012;-7.064;2022-07-10T02:02:13;78.32;;;66.07;;
60239;SDS011;46102;39.012;-7.064;2022-07-10T02:04:13;79.75;;;67.80;;
60239;SDS011;46102;39.012;-7.064;2022-07-10T02:06:33;76.03;;;66.85;;
60239;SDS011;46102;39.012;-7.064;2022-07-10T02:08:34;74.80;;;65.82;;
60239;SDS011;46102;39.012;-7.064;2022-07-10T02:10:34;77.47;;;66.55;;
60239;SDS011;46102;39.012;-7.064;2022-07-10T02:12:35;79.03;;;64.78;;
60239;SDS011;46102;39.012;-7.064;2022-07-10T02:14:36;82.15;;;67.35;;
60239;SDS011;46102;39.012;-7.064;2022-07-10T02:16:37;72.65;;;62.85;;
60239;SDS011;46102;39.012;-7.064;2022-07-10T02:18:38;74.38;;;63.20;;
60239;SDS011;46102;39.012;-7.064;2022-07-10T02:20:39;70.03;;;60.92;;
60239;SDS011;46102;39.012;-7.064;2022-07-10T02:22:40;71.68;;;60.15;;
60239;SDS011;46102;39.012;-7.064;2022-07-10T02:24:40;74.10;;;63.40;;
60239;SDS011;46102;39.012;-7.064;2022-07-10T02:26:41;74.13;;;60.47;;
60239;SDS011;46102;39.012;-7.064;2022-07-10T02:28:42;66.53;;;56.92;;
60239;SDS011;46102;39.012;-7.064;2022-07-10T02:30:43;67.82;;;58.38;;
60239;SDS011;46102;39.012;-7.064;2022-07-10T02:32:43;67.80;;;57.80;;
60239;SDS011;46102;39.012;-7.064;2022-07-10T02:34:44;74.88;;;59.83;;
60239;SDS011;46102;39.012;-7.064;2022-07-10T02:36:45;68.10;;;59.10;;
60239;SDS011;46102;39.012;-7.064;2022-07-10T02:38:45;72.50;;;57.60;;
60239;SDS011;46102;39.012;-7.064;2022-07-10T02:40:46;65.10;;;57.17;;
60239;SDS011;46102;39.012;-7.064;2022-07-10T02:42:49;67.00;;;58.05;;
60239;SDS011;46102;39.012;-7.064;2022-07-10T02:44:50;74.68;;;58.72;;
60239;SDS011;46102;39.012;-7.064;2022-07-10T02:46:50;69.43;;;59.38;;
60239;SDS011;46102;39.012;-7.064;2022-07-10T02:48:51;72.32;;;58.05;;
60239;SDS011;46102;39.012;-7.064;2022-07-10T02:50:52;65.55;;;56.50;;
60239;SDS011;46102;39.012;-7.064;2022-07-10T02:52:52;68.28;;;55.42;;
60239;SDS011;46102;39.012;-7.064;2022-07-10T02:54:53;66.63;;;55.08;;
60239;SDS011;46102;39.012;-7.064;2022-07-10T02:56:54;64.03;;;56.95;;
60239;SDS011;46102;39.012;-7.064;2022-07-10T02:58:54;65.25;;;55.53;;
60239;SDS011;46102;39.012;-7.064;2022-07-10T03:00:55;66.82;;;55.25;;
60239;SDS011;46102;39.012;-7.064;2022-07-10T03:02:56;68.50;;;56.55;;
60239;SDS011;46102;39.012;-7.064;2022-07-10T03:04:57;65.40;;;55.47;;
60239;SDS011;46102;39.012;-7.064;2022-07-10T03:06:57;63.20;;;56.28;;
60239;SDS011;46102;39.012;-7.064;2022-07-10T03:08:58;67.35;;;56.42;;
60239;SDS011;46102;39.012;-7.064;2022-07-10T03:10:59;68.68;;;56.05;;
60239;SDS011;46102;39.012;-7.064;2022-07-10T03:12:59;65.18;;;55.75;;
60239;SDS011;46102;39.012;-7.064;2022-07-10T03:15:00;62.17;;;54.35;;
60239;SDS011;46102;39.012;-7.064;2022-07-10T03:17:01;67.22;;;55.22;;
60239;SDS011;46102;39.012;-7.064;2022-07-10T03:19:02;68.30;;;54.90;;
60239;SDS011;46102;39.012;-7.064;2022-07-10T03:21:03;79.78;;;56.47;;
60239;SDS011;46102;39.012;-7.064;2022-07-10T03:23:03;63.83;;;55.97;;
60239;SDS011;46102;39.012;-7.064;2022-07-10T03:25:04;68.45;;;55.35;;
60239;SDS011;46102;39.012;-7.064;2022-07-10T03:27:07;64.72;;;54.65;;
60239;SDS011;46102;39.012;-7.064;2022-07-10T03:29:08;64.95;;;55.42;;
60239;SDS011;46102;39.012;-7.064;2022-07-10T03:31:09;70.68;;;56.85;;
60239;SDS011;46102;39.012;-7.064;2022-07-10T03:33:09;66.68;;;55.70;;
60239;SDS011;46102;39.012;-7.064;2022-07-10T03:35:10;70.03;;;56.40;;
60239;SDS011;46102;39.012;-7.064;2022-07-10T03:37:11;61.03;;;53.58;;
60239;SDS011;46102;39.012;-7.064;2022-07-10T03:39:11;63.88;;;53.17;;
60239;SDS011;46102;39.012;-7.064;2022-07-10T03:41:13;63.55;;;54.35;;
60239;SDS011;46102;39.012;-7.064;2022-07-10T03:43:16;64.75;;;54.67;;
60239;SDS011;46102;39.012;-7.064;2022-07-10T03:45:17;63.25;;;53.55;;
60239;SDS011;46102;39.012;-7.064;2022-07-10T03:47:18;63.50;;;53.78;;
60239;SDS011;46102;39.012;-7.064;2022-07-10T03:49:19;62.53;;;53.88;;
60239;SDS011;46102;39.012;-7.064;2022-07-10T03:51:19;63.13;;;54.72;;
60239;SDS011;46102;39.012;-7.064;2022-07-10T03:53:20;64.55;;;55.65;;
60239;SDS011;46102;39.012;-7.064;2022-07-10T03:55:21;63.50;;;54.10;;
60239;SDS011;46102;39.012;-7.064;2022-07-10T03:57:22;61.28;;;54.05;;
60239;SDS011;46102;39.012;-7.064;2022-07-10T03:59:41;67.30;;;54.35;;
60239;SDS011;46102;39.012;-7.064;2022-07-10T04:01:42;62.42;;;54.10;;
60239;SDS011;46102;39.012;-7.064;2022-07-10T04:03:43;70.90;;;55.70;;
60239;SDS011;46102;39.012;-7.064;2022-07-10T04:05:44;67.97;;;55.88;;
60239;SDS011;46102;39.012;-7.064;2022-07-10T04:07:45;67.97;;;55.80;;
60239;SDS011;46102;39.012;-7.064;2022-07-10T04:09:46;67.75;;;56.03;;
60239;SDS011;46102;39.012;-7.064;2022-07-10T04:11:46;63.55;;;54.65;;
60239;SDS011;46102;39.012;-7.064;2022-07-10T04:13:47;65.97;;;54.75;;
60239;SDS011;46102;39.012;-7.064;2022-07-10T04:15:48;69.40;;;55.50;;
60239;SDS011;46102;39.012;-7.064;2022-07-10T04:17:48;64.28;;;54.28;;
60239;SDS011;46102;39.012;-7.064;2022-07-10T04:19:49;65.20;;;53.20;;
60239;SDS011;46102;39.012;-7.064;2022-07-10T04:21:50;62.63;;;52.83;;
60239;SDS011;46102;39.012;-7.064;2022-07-10T04:23:51;62.90;;;52.90;;
60239;SDS011;46102;39.012;-7.064;2022-07-10T04:25:51;65.53;;;52.47;;
60239;SDS011;46102;39.012;-7.064;2022-07-10T04:27:52;60.75;;;50.60;;
60239;SDS011;46102;39.012;-7.064;2022-07-10T04:29:53;57.97;;;51.20;;
60239;SDS011;46102;39.012;-7.064;2022-07-10T04:31:54;61.10;;;50.63;;
60239;SDS011;46102;39.012;-7.064;2022-07-10T04:33:55;61.08;;;50.72;;
60239;SDS011;46102;39.012;-7.064;2022-07-10T04:35:57;64.57;;;52.35;;
60239;SDS011;46102;39.012;-7.064;2022-07-10T04:37:58;63.92;;;50.88;;
60239;SDS011;46102;39.012;-7.064;2022-07-10T04:39:58;64.30;;;51.72;;
60239;SDS011;46102;39.012;-7.064;2022-07-10T04:41:59;59.85;;;51.05;;
60239;SDS011;46102;39.012;-7.064;2022-07-10T04:44:00;62.17;;;51.13;;
60239;SDS011;46102;39.012;-7.064;2022-07-10T04:46:01;63.13;;;51.10;;
60239;SDS011;46102;39.012;-7.064;2022-07-10T04:48:02;56.65;;;48.28;;
60239;SDS011;46102;39.012;-7.064;2022-07-10T04:50:04;60.47;;;49.72;;
60239;SDS011;46102;39.012;-7.064;2022-07-10T04:52:06;71.65;;;50.00;;
60239;SDS011;46102;39.012;-7.064;2022-07-10T04:54:07;60.03;;;49.17;;
60239;SDS011;46102;39.012;-7.064;2022-07-10T04:56:07;59.55;;;49.15;;
60239;SDS011;46102;39.012;-7.064;2022-07-10T04:58:08;60.45;;;48.35;;
60239;SDS011;46102;39.012;-7.064;2022-07-10T05:00:09;63.85;;;48.65;;
60239;SDS011;46102;39.012;-7.064;2022-07-10T05:02:10;69.65;;;49.25;;
60239;SDS011;46102;39.012;-7.064;2022-07-10T05:04:11;63.65;;;48.17;;
60239;SDS011;46102;39.012;-7.064;2022-07-10T05:06:12;56.17;;;47.47;;
60239;SDS011;46102;39.012;-7.064;2022-07-10T05:08:13;61.70;;;47.88;;
60239;SDS011;46102;39.012;-7.064;2022-07-10T05:10:14;59.75;;;47.85;;
60239;SDS011;46102;39.012;-7.064;2022-07-10T05:12:14;58.25;;;46.10;;
60239;SDS011;46102;39.012;-7.064;2022-07-10T05:14:15;56.58;;;47.45;;
60239;SDS011;46102;39.012;-7.064;2022-07-10T05:16:16;53.70;;;46.65;;
60239;SDS011;46102;39.012;-7.064;2022-07-10T05:18:18;57.00;;;46.95;;
60239;SDS011;46102;39.012;-7.064;2022-07-10T05:20:18;58.38;;;49.20;;
60239;SDS011;46102;39.012;-7.064;2022-07-10T05:22:19;60.22;;;46.40;;
60239;SDS011;46102;39.012;-7.064;2022-07-10T05:24:20;57.47;;;48.67;;
60239;SDS011;46102;39.012;-7.064;2022-07-10T05:26:21;60.80;;;47.15;;
60239;SDS011;46102;39.012;-7.064;2022-07-10T05:28:22;57.60;;;46.15;;
60239;SDS011;46102;39.012;-7.064;2022-07-10T05:30:23;63.42;;;46.60;;
60239;SDS011;46102;39.012;-7.064;2022-07-10T05:32:23;52.35;;;44.80;;
60239;SDS011;46102;39.012;-7.064;2022-07-10T05:34:25;54.67;;;43.97;;
60239;SDS011;46102;39.012;-7.064;2022-07-10T05:36:26;56.85;;;44.03;;
60239;SDS011;46102;39.012;-7.064;2022-07-10T05:38:26;54.40;;;45.25;;
60239;SDS011;46102;39.012;-7.064;2022-07-10T05:40:27;53.97;;;43.88;;
60239;SDS011;46102;39.012;-7.064;2022-07-10T05:42:28;53.88;;;43.78;;
60239;SDS011;46102;39.012;-7.064;2022-07-10T05:44:29;55.67;;;45.25;;
60239;SDS011;46102;39.012;-7.064;2022-07-10T05:46:29;53.00;;;44.95;;
60239;SDS011;46102;39.012;-7.064;2022-07-10T05:48:30;54.13;;;43.25;;
60239;SDS011;46102;39.012;-7.064;2022-07-10T05:50:31;53.28;;;43.20;;
60239;SDS011;46102;39.012;-7.064;2022-07-10T05:52:32;50.92;;;43.55;;
60239;SDS011;46102;39.012;-7.064;2022-07-10T05:54:33;51.83;;;43.35;;
60239;SDS011;46102;39.012;-7.064;2022-07-10T05:56:34;58.90;;;43.45;;
60239;SDS011;46102;39.012;-7.064;2022-07-10T05:58:35;52.03;;;42.00;;
60239;SDS011;46102;39.012;-7.064;2022-07-10T06:00:35;54.30;;;43.17;;
60239;SDS011;46102;39.012;-7.064;2022-07-10T06:02:36;53.00;;;42.90;;
60239;SDS011;46102;39.012;-7.064;2022-07-10T06:04:37;55.42;;;42.90;;
60239;SDS011;46102;39.012;-7.064;2022-07-10T06:06:38;53.63;;;42.70;;
60239;SDS011;46102;39.012;-7.064;2022-07-10T06:08:38;51.92;;;43.60;;
60239;SDS011;46102;39.012;-7.064;2022-07-10T06:10:39;51.88;;;42.72;;
60239;SDS011;46102;39.012;-7.064;2022-07-10T06:12:40;53.72;;;43.67;;
60239;SDS011;46102;39.012;-7.064;2022-07-10T06:14:41;60.20;;;43.92;;
60239;SDS011;46102;39.012;-7.064;2022-07-10T06:16:42;49.42;;;41.95;;
60239;SDS011;46102;39.012;-7.064;2022-07-10T06:18:43;49.35;;;40.22;;
60239;SDS011;46102;39.012;-7.064;2022-07-10T06:20:43;49.40;;;41.88;;
60239;SDS011;46102;39.012;-7.064;2022-07-10T06:22:44;51.58;;;44.35;;
60239;SDS011;46102;39.012;-7.064;2022-07-10T06:24:45;56.90;;;41.63;;
60239;SDS011;46102;39.012;-7.064;2022-07-10T06:26:45;48.17;;;40.47;;
60239;SDS011;46102;39.012;-7.064;2022-07-10T06:28:46;55.17;;;41.65;;
60239;SDS011;46102;39.012;-7.064;2022-07-10T06:30:47;47.03;;;40.28;;
60239;SDS011;46102;39.012;-7.064;2022-07-10T06:32:48;51.22;;;41.85;;
60239;SDS011;46102;39.012;-7.064;2022-07-10T06:34:49;50.60;;;39.97;;
60239;SDS011;46102;39.012;-7.064;2022-07-10T06:36:50;55.80;;;40.97;;
60239;SDS011;46102;39.012;-7.064;2022-07-10T06:38:51;45.00;;;39.42;;
60239;SDS011;46102;39.012;-7.064;2022-07-10T06:40:51;52.00;;;41.88;;
60239;SDS011;46102;39.012;-7.064;2022-07-10T06:42:53;53.45;;;39.97;;
60239;SDS011;46102;39.012;-7.064;2022-07-10T06:44:54;45.58;;;39.30;;
60239;SDS011;46102;39.012;-7.064;2022-07-10T06:46:54;48.67;;;40.67;;
60239;SDS011;46102;39.012;-7.064;2022-07-10T06:49:13;46.13;;;39.50;;
60239;SDS011;46102;39.012;-7.064;2022-07-10T06:51:14;46.53;;;39.22;;
60239;SDS011;46102;39.012;-7.064;2022-07-10T06:53:15;46.70;;;37.35;;
60239;SDS011;46102;39.012;-7.064;2022-07-10T06:55:16;46.25;;;38.30;;
60239;SDS011;46102;39.012;-7.064;2022-07-10T06:57:19;44.65;;;38.35;;
60239;SDS011;46102;39.012;-7.064;2022-07-10T06:59:20;41.95;;;37.17;;
60239;SDS011;46102;39.012;-7.064;2022-07-10T07:01:21;41.13;;;36.08;;
60239;SDS011;46102;39.012;-7.064;2022-07-10T07:03:21;40.53;;;35.38;;
60239;SDS011;46102;39.012;-7.064;2022-07-10T07:05:22;39.33;;;34.65;;
60239;SDS011;46102;39.012;-7.064;2022-07-10T07:07:23;44.47;;;36.42;;
60239;SDS011;46102;39.012;-7.064;2022-07-10T07:09:24;43.00;;;37.08;;
60239;SDS011;46102;39.012;-7.064;2022-07-10T07:11:24;54.08;;;38.08;;
60239;SDS011;46102;39.012;-7.064;2022-07-10T07:13:25;38.67;;;34.47;;
60239;SDS011;46102;39.012;-7.064;2022-07-10T07:15:26;40.53;;;36.17;;
60239;SDS011;46102;39.012;-7.064;2022-07-10T07:17:26;41.80;;;36.08;;
60239;SDS011;46102;39.012;-7.064;2022-07-10T07:19:34;46.60;;;38.85;;
60239;SDS011;46102;39.012;-7.064;2022-07-10T07:21:53;50.67;;;37.90;;
60239;SDS011;46102;39.012;-7.064;2022-07-10T07:24:13;46.83;;;38.60;;
60239;SDS011;46102;39.012;-7.064;2022-07-10T07:26:13;45.63;;;38.72;;
60239;SDS011;46102;39.012;-7.064;2022-07-10T07:28:15;55.47;;;39.97;;
60239;SDS011;46102;39.012;-7.064;2022-07-10T07:30:16;45.70;;;38.28;;
60239;SDS011;46102;39.012;-7.064;2022-07-10T07:32:16;45.10;;;38.80;;
60239;SDS011;46102;39.012;-7.064;2022-07-10T07:34:17;46.92;;;37.10;;
60239;SDS011;46102;39.012;-7.064;2022-07-10T07:36:18;49.28;;;39.28;;
60239;SDS011;46102;39.012;-7.064;2022-07-10T07:38:18;46.60;;;38.22;;
60239;SDS011;46102;39.012;-7.064;2022-07-10T07:40:20;43.70;;;36.42;;
60239;SDS011;46102;39.012;-7.064;2022-07-10T07:42:23;41.97;;;36.17;;
60239;SDS011;46102;39.012;-7.064;2022-07-10T07:44:24;44.92;;;36.88;;
60239;SDS011;46102;39.012;-7.064;2022-07-10T07:46:24;47.72;;;37.50;;
60239;SDS011;46102;39.012;-7.064;2022-07-10T07:48:25;37.78;;;33.83;;
60239;SDS011;46102;39.012;-7.064;2022-07-10T07:50:27;45.00;;;36.95;;
60239;SDS011;46102;39.012;-7.064;2022-07-10T07:52:31;40.72;;;35.03;;
60239;SDS011;46102;39.012;-7.064;2022-07-10T07:54:34;39.60;;;34.80;;
60239;SDS011;46102;39.012;-7.064;2022-07-10T07:56:35;41.65;;;35.05;;
60239;SDS011;46102;39.012;-7.064;2022-07-10T07:58:36;41.60;;;33.97;;
60239;SDS011;46102;39.012;-7.064;2022-07-10T08:00:36;42.78;;;35.45;;
60239;SDS011;46102;39.012;-7.064;2022-07-10T08:02:38;41.60;;;32.05;;
60239;SDS011;46102;39.012;-7.064;2022-07-10T08:04:39;37.40;;;32.92;;
60239;SDS011;46102;39.012;-7.064;2022-07-10T08:06:40;40.30;;;32.78;;
60239;SDS011;46102;39.012;-7.064;2022-07-10T08:08:40;36.20;;;31.52;;
60239;SDS011;46102;39.012;-7.064;2022-07-10T08:10:41;33.58;;;30.10;;
60239;SDS011;46102;39.012;-7.064;2022-07-10T08:12:42;33.55;;;30.17;;
60239;SDS011;46102;39.012;-7.064;2022-07-10T08:14:45;35.95;;;32.15;;
60239;SDS011;46102;39.012;-7.064;2022-07-10T08:16:46;35.40;;;31.60;;
60239;SDS011;46102;39.012;-7.064;2022-07-10T08:18:47;37.50;;;32.03;;
60239;SDS011;46102;39.012;-7.064;2022-07-10T08:20:47;34.70;;;30.50;;
60239;SDS011;46102;39.012;-7.064;2022-07-10T08:22:48;31.70;;;28.55;;
60239;SDS011;46102;39.012;-7.064;2022-07-10T08:24:49;33.60;;;30.05;;
60239;SDS011;46102;39.012;-7.064;2022-07-10T08:26:50;33.47;;;29.40;;
60239;SDS011;46102;39.012;-7.064;2022-07-10T08:28:51;32.95;;;29.45;;
60239;SDS011;46102;39.012;-7.064;2022-07-10T08:30:51;30.17;;;26.88;;
60239;SDS011;46102;39.012;-7.064;2022-07-10T08:32:52;29.85;;;26.75;;
60239;SDS011;46102;39.012;-7.064;2022-07-10T08:34:53;33.42;;;27.73;;
60239;SDS011;46102;39.012;-7.064;2022-07-10T08:36:54;29.70;;;26.70;;
60239;SDS011;46102;39.012;-7.064;2022-07-10T08:38:55;28.15;;;25.08;;
60239;SDS011;46102;39.012;-7.064;2022-07-10T08:40:56;28.05;;;23.80;;
60239;SDS011;46102;39.012;-7.064;2022-07-10T08:42:58;30.17;;;26.15;;
60239;SDS011;46102;39.012;-7.064;2022-07-10T08:44:59;28.02;;;25.02;;
60239;SDS011;46102;39.012;-7.064;2022-07-10T08:47:00;28.85;;;25.25;;
60239;SDS011;46102;39.012;-7.064;2022-07-10T08:49:04;27.63;;;24.92;;
60239;SDS011;46102;39.012;-7.064;2022-07-10T08:51:08;25.88;;;23.17;;
60239;SDS011;46102;39.012;-7.064;2022-07-10T08:53:23;25.98;;;23.10;;
60239;SDS011;46102;39.012;-7.064;2022-07-10T08:55:32;24.95;;;22.58;;
60239;SDS011;46102;39.012;-7.064;2022-07-10T08:57:32;27.65;;;23.85;;
60239;SDS011;46102;39.012;-7.064;2022-07-10T08:59:34;23.95;;;21.48;;
60239;SDS011;46102;39.012;-7.064;2022-07-10T09:01:35;24.88;;;22.27;;
60239;SDS011;46102;39.012;-7.064;2022-07-10T09:03:36;24.77;;;22.13;;
60239;SDS011;46102;39.012;-7.064;2022-07-10T09:05:38;24.23;;;21.20;;
60239;SDS011;46102;39.012;-7.064;2022-07-10T09:07:39;23.42;;;21.00;;
60239;SDS011;46102;39.012;-7.064;2022-07-10T09:09:52;22.58;;;20.48;;
60239;SDS011;46102;39.012;-7.064;2022-07-10T09:11:58;27.25;;;20.95;;
60239;SDS011;46102;39.012;-7.064;2022-07-10T09:13:59;21.77;;;19.58;;
60239;SDS011;46102;39.012;-7.064;2022-07-10T09:16:08;23.58;;;19.00;;
60239;SDS011;46102;39.012;-7.064;2022-07-10T09:18:21;21.52;;;18.05;;
60239;SDS011;46102;39.012;-7.064;2022-07-10T09:20:34;20.13;;;18.23;;
60239;SDS011;46102;39.012;-7.064;2022-07-10T09:22:40;19.95;;;18.10;;
60239;SDS011;46102;39.012;-7.064;2022-07-10T09:24:42;21.90;;;19.70;;
60239;SDS011;46102;39.012;-7.064;2022-07-10T09:26:57;21.65;;;19.65;;
60239;SDS011;46102;39.012;-7.064;2022-07-10T09:29:10;21.10;;;19.08;;
60239;SDS011;46102;39.012;-7.064;2022-07-10T09:31:11;19.13;;;17.40;;
60239;SDS011;46102;39.012;-7.064;2022-07-10T09:35:29;19.80;;;17.90;;
60239;SDS011;46102;39.012;-7.064;2022-07-10T09:37:49;19.60;;;17.48;;
60239;SDS011;46102;39.012;-7.064;2022-07-10T09:39:52;21.30;;;17.30;;
60239;SDS011;46102;39.012;-7.064;2022-07-10T09:41:59;19.13;;;17.27;;
60239;SDS011;46102;39.012;-7.064;2022-07-10T09:44:04;18.55;;;16.85;;
60239;SDS011;46102;39.012;-7.064;2022-07-10T09:46:08;19.58;;;17.58;;
60239;SDS011;46102;39.012;-7.064;2022-07-10T09:48:09;19.67;;;17.52;;
60239;SDS011;46102;39.012;-7.064;2022-07-10T09:50:20;21.33;;;17.05;;
60239;SDS011;46102;39.012;-7.064;2022-07-10T09:52:25;18.52;;;16.58;;
60239;SDS011;46102;39.012;-7.064;2022-07-10T09:54:27;18.83;;;16.83;;
60239;SDS011;46102;39.012;-7.064;2022-07-10T09:56:47;18.98;;;17.08;;
60239;SDS011;46102;39.012;-7.064;2022-07-10T09:58:51;17.38;;;15.68;;
60239;SDS011;46102;39.012;-7.064;2022-07-10T10:00:52;18.35;;;16.38;;
60239;SDS011;46102;39.012;-7.064;2022-07-10T10:02:57;15.90;;;14.50;;
60239;SDS011;46102;39.012;-7.064;2022-07-10T10:05:05;16.42;;;14.85;;
60239;SDS011;46102;39.012;-7.064;2022-07-10T10:07:07;15.25;;;13.90;;
60239;SDS011;46102;39.012;-7.064;2022-07-10T10:11:35;15.27;;;13.98;;
60239;SDS011;46102;39.012;-7.064;2022-07-10T10:13:37;18.83;;;14.07;;
60239;SDS011;46102;39.012;-7.064;2022-07-10T10:15:37;17.20;;;14.05;;
60239;SDS011;46102;39.012;-7.064;2022-07-10T10:17:39;15.27;;;13.75;;
60239;SDS011;46102;39.012;-7.064;2022-07-10T10:19:41;13.45;;;12.38;;
60239;SDS011;46102;39.012;-7.064;2022-07-10T10:22:00;12.77;;;11.77;;
60239;SDS011;46102;39.012;-7.064;2022-07-10T10:24:02;14.57;;;13.00;;
60239;SDS011;46102;39.012;-7.064;2022-07-10T10:26:03;12.50;;;11.30;;
60239;SDS011;46102;39.012;-7.064;2022-07-10T10:28:08;17.98;;;11.90;;
60239;SDS011;46102;39.012;-7.064;2022-07-10T10:30:10;16.05;;;12.10;;
60239;SDS011;46102;39.012;-7.064;2022-07-10T10:32:12;12.70;;;11.60;;
60239;SDS011;46102;39.012;-7.064;2022-07-10T10:34:13;12.77;;;11.52;;
60239;SDS011;46102;39.012;-7.064;2022-07-10T10:40:49;14.32;;;12.00;;
60239;SDS011;46102;39.012;-7.064;2022-07-10T10:42:50;12.25;;;11.20;;
60239;SDS011;46102;39.012;-7.064;2022-07-10T10:47:25;10.02;;;9.23;;
60239;SDS011;46102;39.012;-7.064;2022-07-10T10:49:26;13.90;;;10.38;;
60239;SDS011;46102;39.012;-7.064;2022-07-10T10:52:01;11.38;;;9.50;;
60239;SDS011;46102;39.012;-7.064;2022-07-10T10:54:06;10.13;;;9.38;;
60239;SDS011;46102;39.012;-7.064;2022-07-10T10:56:21;11.27;;;10.38;;
60239;SDS011;46102;39.012;-7.064;2022-07-10T10:58:22;10.82;;;9.93;;
60239;SDS011;46102;39.012;-7.064;2022-07-10T11:00:31;10.82;;;9.80;;
60239;SDS011;46102;39.012;-7.064;2022-07-10T11:02:38;10.82;;;9.68;;
60239;SDS011;46102;39.012;-7.064;2022-07-10T11:04:42;10.80;;;9.90;;
60239;SDS011;46102;39.012;-7.064;2022-07-10T11:08:53;10.45;;;9.63;;
60239;SDS011;46102;39.012;-7.064;2022-07-10T11:11:00;10.70;;;9.95;;
60239;SDS011;46102;39.012;-7.064;2022-07-10T11:13:08;10.43;;;9.60;;
60239;SDS011;46102;39.012;-7.064;2022-07-10T11:15:16;10.05;;;9.15;;
60239;SDS011;46102;39.012;-7.064;2022-07-10T11:17:16;10.25;;;9.45;;
60239;SDS011;46102;39.012;-7.064;2022-07-10T11:19:25;10.40;;;9.30;;
60239;SDS011;46102;39.012;-7.064;2022-07-10T11:21:27;9.48;;;8.88;;
60239;SDS011;46102;39.012;-7.064;2022-07-10T11:23:55;9.70;;;8.80;;
60239;SDS011;46102;39.012;-7.064;2022-07-10T11:26:07;10.05;;;9.35;;
60239;SDS011;46102;39.012;-7.064;2022-07-10T11:28:12;14.32;;;9.68;;
60239;SDS011;46102;39.012;-7.064;2022-07-10T11:30:18;10.45;;;9.38;;
60239;SDS011;46102;39.012;-7.064;2022-07-10T11:32:19;10.18;;;9.38;;
60239;SDS011;46102;39.012;-7.064;2022-07-10T11:34:23;10.73;;;9.18;;
60239;SDS011;46102;39.012;-7.064;2022-07-10T11:36:34;14.07;;;8.85;;
60239;SDS011;46102;39.012;-7.064;2022-07-10T11:38:39;9.15;;;8.45;;
60239;SDS011;46102;39.012;-7.064;2022-07-10T11:40:42;9.25;;;8.55;;
60239;SDS011;46102;39.012;-7.064;2022-07-10T11:44:53;10.40;;;9.43;;
60239;SDS011;46102;39.012;-7.064;2022-07-10T11:46:55;9.60;;;8.55;;
60239;SDS011;46102;39.012;-7.064;2022-07-10T11:48:57;10.63;;;9.73;;
60239;SDS011;46102;39.012;-7.064;2022-07-10T11:50:59;9.82;;;9.02;;
60239;SDS011;46102;39.012;-7.064;2022-07-10T11:52:59;9.18;;;8.25;;
60239;SDS011;46102;39.012;-7.064;2022-07-10T11:55:12;8.95;;;8.23;;
60239;SDS011;46102;39.012;-7.064;2022-07-10T11:57:15;9.88;;;8.85;;
60239;SDS011;46102;39.012;-7.064;2022-07-10T11:59:15;7.70;;;7.10;;
60239;SDS011;46102;39.012;-7.064;2022-07-10T12:01:17;8.93;;;8.27;;
60239;SDS011;46102;39.012;-7.064;2022-07-10T12:03:19;8.32;;;7.55;;